Terminal Aerodrome Forecast
Issued by NWS Quad Cities IA IL

Home | Current Version | Previous Version | Text Only | Print | Product List | Glossary On
Versions: 1 2 3 4 5 6 7 8 9 10 11 12 13 14 15 16
732
FTUS43 KDVN 242320
TAFDBQ
TAF
KDBQ 242320Z 2500/2524 30013KT P6SM SCT150
     FM250130 31014G23KT P6SM BKN100
     FM250700 32013KT P6SM SCT150=

USA.gov is the U.S. government's official web portal to all federal, state and local government web resources and services.